createdAt,value
2019-02-23T00:00:14.033Z,99.90
2019-02-23T00:02:42.615Z,99.90
2019-02-23T00:05:11.250Z,99.90
2019-02-23T00:07:39.857Z,99.90
2019-02-23T00:10:08.724Z,99.90
2019-02-23T00:12:37.313Z,99.90
2019-02-23T00:15:07.097Z,99.90
2019-02-23T00:17:35.684Z,99.90
2019-02-23T00:20:06.486Z,99.90
2019-02-23T00:22:35.444Z,99.90
2019-02-23T00:25:04.072Z,99.90
2019-02-23T00:27:32.730Z,99.90
2019-02-23T00:30:01.420Z,99.90
2019-02-23T00:32:29.973Z,99.90
2019-02-23T00:34:58.555Z,99.90
2019-02-23T00:37:27.107Z,99.90
2019-02-23T00:39:55.688Z,99.90
2019-02-23T00:42:24.834Z,99.90
2019-02-23T00:44:53.408Z,99.90
2019-02-23T00:47:22.033Z,99.90
2019-02-23T00:49:51.092Z,99.90
2019-02-23T00:52:19.665Z,99.70
2019-02-23T00:54:48.220Z,99.60
2019-02-23T00:57:16.904Z,99.80
2019-02-23T00:59:45.456Z,99.90
2019-02-23T01:02:14.073Z,99.90
2019-02-23T01:04:42.624Z,99.80
2019-02-23T01:07:11.564Z,99.90
2019-02-23T01:09:40.119Z,99.90
2019-02-23T01:12:08.785Z,99.90
2019-02-23T01:14:37.652Z,99.90
2019-02-23T01:17:06.205Z,99.90
2019-02-23T01:19:34.781Z,99.90
2019-02-23T01:22:03.348Z,99.90
2019-02-23T01:24:32.002Z,99.90
2019-02-23T01:27:00.628Z,99.90
2019-02-23T01:29:29.208Z,99.90
2019-02-23T01:31:58.120Z,99.90
2019-02-23T01:34:26.775Z,99.90
2019-02-23T01:36:55.328Z,99.90
2019-02-23T01:39:23.943Z,99.90
2019-02-23T01:41:52.573Z,99.90
2019-02-23T01:44:21.181Z,99.90
2019-02-23T01:46:50.616Z,99.90
2019-02-23T01:49:19.258Z,99.90
2019-02-23T01:51:48.156Z,99.90
2019-02-23T01:54:16.711Z,99.90
2019-02-23T01:56:45.396Z,99.90
2019-02-23T01:59:13.952Z,99.90
2019-02-23T02:01:43.176Z,99.90
2019-02-23T02:04:11.797Z,99.90
2019-02-23T02:06:40.795Z,99.90
2019-02-23T02:09:10.109Z,99.90
2019-02-23T02:11:38.777Z,99.90
2019-02-23T02:14:07.400Z,99.90
2019-02-23T02:16:36.144Z,99.90
2019-02-23T02:19:04.789Z,99.90
2019-02-23T02:21:33.720Z,99.90
2019-02-23T02:24:02.344Z,99.90
2019-02-23T02:26:30.904Z,99.90
2019-02-23T02:28:59.484Z,99.90
2019-02-23T02:31:30.677Z,99.90
2019-02-23T02:34:10.556Z,99.90
2019-02-23T02:36:39.194Z,99.90
2019-02-23T02:39:12.102Z,99.90
2019-02-23T02:41:40.903Z,99.90
2019-02-23T02:44:09.566Z,99.90
2019-02-23T02:46:38.144Z,99.90
2019-02-23T02:49:06.844Z,99.90
2019-02-23T02:51:35.408Z,99.90
2019-02-23T02:54:04.063Z,99.90
2019-02-23T02:56:32.684Z,99.90
2019-02-23T02:59:01.333Z,99.90
2019-02-23T03:01:29.910Z,99.90
2019-02-23T03:03:58.540Z,99.90
2019-02-23T03:06:27.108Z,99.90
2019-02-23T03:08:55.682Z,99.90
2019-02-23T03:11:24.345Z,99.90
2019-02-23T03:13:53.312Z,99.90
2019-02-23T03:16:21.893Z,99.90
2019-02-23T03:18:50.444Z,99.90
2019-02-23T03:21:19.020Z,99.90
2019-02-23T03:23:48.075Z,99.90
2019-02-23T03:26:16.714Z,99.90
2019-02-23T03:28:45.636Z,99.90
2019-02-23T03:31:14.236Z,99.90
2019-02-23T03:33:42.799Z,99.90
2019-02-23T03:36:11.359Z,99.90
2019-02-23T03:38:39.936Z,99.90
2019-02-23T03:41:08.664Z,99.90
2019-02-23T03:43:37.314Z,99.90
2019-02-23T03:46:05.868Z,99.90
2019-02-23T03:48:34.448Z,99.90
2019-02-23T03:51:03.007Z,99.90
2019-02-23T03:53:31.609Z,99.90
2019-02-23T03:56:00.167Z,99.90
2019-02-23T03:58:28.729Z,99.90
2019-02-23T04:00:57.305Z,99.90
2019-02-23T04:03:25.863Z,99.90
2019-02-23T04:05:54.436Z,99.90
2019-02-23T04:08:23.055Z,99.90
2019-02-23T04:10:51.631Z,99.90
2019-02-23T04:13:20.251Z,99.90
2019-02-23T04:15:48.877Z,99.90
2019-02-23T04:18:17.436Z,99.90
2019-02-23T04:20:46.016Z,99.90
2019-02-23T04:23:14.921Z,99.90
2019-02-23T04:25:43.500Z,99.90
2019-02-23T04:28:12.055Z,99.90
2019-02-23T04:30:40.637Z,99.90
2019-02-23T04:33:09.221Z,99.90
2019-02-23T04:35:37.762Z,99.90
2019-02-23T04:38:06.337Z,99.90
2019-02-23T04:40:35.189Z,99.90
2019-02-23T04:43:03.780Z,99.90
2019-02-23T04:45:32.405Z,99.90
2019-02-23T04:48:00.980Z,99.90
2019-02-23T04:50:29.562Z,99.90
2019-02-23T04:52:58.123Z,99.90
2019-02-23T04:55:26.755Z,99.90
2019-02-23T04:57:55.318Z,99.90
2019-02-23T05:00:23.946Z,99.90
2019-02-23T05:02:52.613Z,99.90
2019-02-23T05:05:21.167Z,99.90
2019-02-23T05:07:49.845Z,99.90
2019-02-23T05:10:18.403Z,99.90
2019-02-23T05:12:46.957Z,99.90
2019-02-23T05:15:15.652Z,99.90
2019-02-23T05:17:44.205Z,99.90
2019-02-23T05:20:12.785Z,99.90
2019-02-23T05:22:41.347Z,99.90
2019-02-23T05:25:09.985Z,99.90
2019-02-23T05:27:38.539Z,99.90
2019-02-23T05:30:10.325Z,99.90
2019-02-23T05:32:38.872Z,99.90
2019-02-23T05:35:10.418Z,99.90
2019-02-23T05:37:38.994Z,99.90
2019-02-23T05:40:10.532Z,99.90
2019-02-23T05:42:39.108Z,99.90
2019-02-23T05:45:09.904Z,99.90
2019-02-23T05:47:38.865Z,99.90
2019-02-23T05:50:09.267Z,99.90
2019-02-23T05:52:37.849Z,99.90
2019-02-23T05:55:06.748Z,99.90
2019-02-23T05:57:35.257Z,99.90
2019-02-23T06:00:04.763Z,99.90
2019-02-23T06:02:33.316Z,99.90
2019-02-23T06:05:01.943Z,99.90
2019-02-23T06:07:30.505Z,99.90
2019-02-23T06:09:59.061Z,99.90
2019-02-23T06:12:27.645Z,99.90
2019-02-23T06:14:56.220Z,99.90
2019-02-23T06:17:25.052Z,99.90
2019-02-23T06:19:53.932Z,99.90
2019-02-23T06:22:22.497Z,99.90
2019-02-23T06:24:51.073Z,99.90
2019-02-23T06:27:20.229Z,99.90
2019-02-23T06:29:49.207Z,99.90
2019-02-23T06:32:17.757Z,99.90
2019-02-23T06:34:46.400Z,99.90
2019-02-23T06:37:14.965Z,99.90
2019-02-23T06:39:43.516Z,99.90
2019-02-23T06:42:12.100Z,99.90
2019-02-23T06:44:40.664Z,99.90
2019-02-23T06:47:09.236Z,99.90
2019-02-23T06:49:38.205Z,99.90
2019-02-23T06:52:08.324Z,99.20
2019-02-23T06:54:36.904Z,98.60
2019-02-23T06:57:05.506Z,98.10
2019-02-23T06:59:34.067Z,96.80
2019-02-23T07:02:02.656Z,96.60
2019-02-23T07:04:31.214Z,95.80
2019-02-23T07:06:59.812Z,94.70
2019-02-23T07:09:28.436Z,95.20
2019-02-23T07:11:56.992Z,93.80
2019-02-23T07:14:25.569Z,93.00
2019-02-23T07:16:54.127Z,91.50
2019-02-23T07:19:22.705Z,87.70
2019-02-23T07:21:51.259Z,88.90
2019-02-23T07:24:19.853Z,88.10
2019-02-23T07:26:48.421Z,87.90
2019-02-23T07:29:17.010Z,89.00
2019-02-23T07:31:45.564Z,89.60
2019-02-23T07:34:14.536Z,89.10
2019-02-23T07:36:43.101Z,86.90
2019-02-23T07:39:11.666Z,84.90
2019-02-23T07:41:40.243Z,84.00
2019-02-23T07:44:08.800Z,83.40
2019-02-23T07:46:37.735Z,81.80
2019-02-23T07:49:06.305Z,80.00
2019-02-23T07:51:34.880Z,81.30
2019-02-23T07:54:03.437Z,78.10
2019-02-23T07:56:32.098Z,81.40
2019-02-23T07:59:00.656Z,81.20
2019-02-23T08:01:29.810Z,78.50
2019-02-23T08:03:58.356Z,77.00
2019-02-23T08:06:27.019Z,73.20
2019-02-23T08:08:55.576Z,68.10
2019-02-23T08:11:24.225Z,65.20
2019-02-23T08:13:53.189Z,64.60
2019-02-23T08:16:21.919Z,60.10
2019-02-23T08:18:50.564Z,58.10
2019-02-23T08:21:19.385Z,56.90
2019-02-23T08:23:47.975Z,56.20
2019-02-23T08:26:16.532Z,54.20
2019-02-23T08:28:45.116Z,53.70
2019-02-23T08:31:13.686Z,53.30
2019-02-23T08:33:42.291Z,51.60
2019-02-23T08:36:10.870Z,51.50
2019-02-23T08:38:39.420Z,50.40
2019-02-23T08:41:08.008Z,50.50
2019-02-23T08:43:36.573Z,50.60
2019-02-23T08:46:05.148Z,49.40
2019-02-23T08:48:33.716Z,49.60
2019-02-23T08:51:02.294Z,47.80
2019-02-23T08:53:31.303Z,47.00
2019-02-23T08:55:59.848Z,46.50
2019-02-23T08:58:28.408Z,45.80
2019-02-23T09:00:57.007Z,44.70
2019-02-23T09:03:25.691Z,42.70
2019-02-23T09:05:54.608Z,41.20
2019-02-23T09:08:23.228Z,40.70
2019-02-23T09:10:51.784Z,39.60
2019-02-23T09:13:20.652Z,40.00
2019-02-23T09:15:49.199Z,38.60
2019-02-23T09:18:17.794Z,39.90
2019-02-23T09:20:46.369Z,40.30
2019-02-23T09:23:14.964Z,39.60
2019-02-23T09:25:43.633Z,39.80
2019-02-23T09:28:12.262Z,39.50
2019-02-23T09:30:40.883Z,40.40
2019-02-23T09:33:09.421Z,38.50
2019-02-23T09:35:38.100Z,37.20
2019-02-23T09:38:06.743Z,36.50
2019-02-23T09:40:35.319Z,34.50
2019-02-23T09:43:03.879Z,29.70
2019-02-23T09:45:32.452Z,30.10
2019-02-23T09:48:01.010Z,31.40
2019-02-23T09:50:29.592Z,33.30
2019-02-23T09:52:58.540Z,34.60
2019-02-23T09:55:27.117Z,33.70
2019-02-23T09:57:55.683Z,32.90
2019-02-23T10:00:24.333Z,31.50
2019-02-23T10:02:52.881Z,31.70
2019-02-23T10:05:21.450Z,32.90
2019-02-23T10:07:50.095Z,32.60
2019-02-23T10:10:18.653Z,33.40
2019-02-23T10:12:47.242Z,32.50
2019-02-23T10:15:15.800Z,31.20
2019-02-23T10:17:44.373Z,32.20
2019-02-23T10:20:15.389Z,31.20
2019-02-23T10:22:44.052Z,29.60
2019-02-23T10:25:12.743Z,29.60
2019-02-23T10:27:41.476Z,26.10
2019-02-23T10:30:15.556Z,27.20
2019-02-23T10:32:44.227Z,29.30
2019-02-23T10:35:13.940Z,28.30
2019-02-23T10:37:42.469Z,29.70
2019-02-23T10:40:12.199Z,28.60
2019-02-23T10:42:40.744Z,28.60
2019-02-23T10:45:11.542Z,28.70
2019-02-23T10:47:40.172Z,28.80
2019-02-23T10:50:10.820Z,28.90
2019-02-23T10:52:39.527Z,27.90
2019-02-23T10:55:11.297Z,28.30
2019-02-23T10:57:40.223Z,28.80
2019-02-23T11:00:18.683Z,28.60
2019-02-23T11:02:47.254Z,27.70
2019-02-23T11:05:16.240Z,26.90
2019-02-23T11:07:45.056Z,25.00
2019-02-23T11:10:14.215Z,26.10
2019-02-23T11:12:42.932Z,27.00
2019-02-23T11:15:13.121Z,27.80
2019-02-23T11:17:41.713Z,27.50
2019-02-23T11:20:11.500Z,26.20
2019-02-23T11:22:40.264Z,26.10
2019-02-23T11:25:10.865Z,26.20
2019-02-23T11:27:39.496Z,26.00
2019-02-23T11:30:11.002Z,26.40
2019-02-23T11:32:39.554Z,26.30
2019-02-23T11:35:11.168Z,27.40
2019-02-23T11:37:39.898Z,27.40
2019-02-23T11:40:10.909Z,28.70
2019-02-23T11:42:39.584Z,28.60
2019-02-23T11:45:09.804Z,29.70
2019-02-23T11:47:38.356Z,30.00
2019-02-23T11:50:09.576Z,32.60
2019-02-23T11:52:39.468Z,29.50
2019-02-23T11:55:08.560Z,31.80
2019-02-23T11:57:37.177Z,30.80
2019-02-23T12:00:13.625Z,31.80
2019-02-23T12:02:51.992Z,30.60
2019-02-23T12:05:13.016Z,30.40
2019-02-23T12:07:41.576Z,32.00
2019-02-23T12:10:12.776Z,30.10
2019-02-23T12:12:41.612Z,31.30
2019-02-23T12:15:10.509Z,32.00
2019-02-23T12:17:39.165Z,33.30
2019-02-23T12:20:09.716Z,32.60
2019-02-23T12:22:38.297Z,31.90
2019-02-23T12:25:07.793Z,31.50
2019-02-23T12:27:36.364Z,31.30
2019-02-23T12:30:10.207Z,32.80
2019-02-23T12:32:38.812Z,31.10
2019-02-23T12:35:09.911Z,31.20
2019-02-23T12:37:38.748Z,31.70
2019-02-23T12:40:09.449Z,32.60
2019-02-23T12:42:38.033Z,32.80
2019-02-23T12:45:10.038Z,33.20
2019-02-23T12:47:38.595Z,34.00
2019-02-23T12:50:12.044Z,33.00
2019-02-23T12:52:40.964Z,32.80
2019-02-23T12:55:11.083Z,33.10
2019-02-23T12:57:39.634Z,31.50
2019-02-23T13:00:16.848Z,31.10
2019-02-23T13:02:45.413Z,33.50
2019-02-23T13:05:14.326Z,32.10
2019-02-23T13:07:42.996Z,33.30
2019-02-23T13:10:13.004Z,33.80
2019-02-23T13:13:02.826Z,34.70
2019-02-23T13:15:43.520Z,33.20
2019-02-23T13:18:33.392Z,33.00
2019-02-23T13:21:05.051Z,33.90
2019-02-23T13:26:44.649Z,33.20
2019-02-23T13:29:19.426Z,34.20
2019-02-23T13:32:12.116Z,33.00
2019-02-23T13:34:43.772Z,32.40
2019-02-23T13:37:30.499Z,33.50
2019-02-23T13:40:27.780Z,33.00
2019-02-23T13:43:11.248Z,31.90
2019-02-23T13:45:54.968Z,33.10
2019-02-23T13:48:49.448Z,32.70
2019-02-23T13:51:23.865Z,31.00
2019-02-23T13:54:10.328Z,32.80
2019-02-23T13:56:41.953Z,31.70
2019-02-23T13:59:19.716Z,32.70
2019-02-23T14:01:59.680Z,32.20
2019-02-23T14:04:52.768Z,31.90
2019-02-23T14:07:44.124Z,32.90
2019-02-23T14:10:47.748Z,33.60
2019-02-23T14:13:26.083Z,33.00
2019-02-23T14:16:17.581Z,33.20
2019-02-23T14:18:52.232Z,33.70
2019-02-23T14:21:29.869Z,33.80
2019-02-23T14:24:20.656Z,33.80
2019-02-23T14:27:01.121Z,33.70
2019-02-23T14:29:41.359Z,32.60
2019-02-23T14:32:18.592Z,33.40
2019-02-23T14:34:55.992Z,33.50
2019-02-23T14:37:54.681Z,33.80
2019-02-23T14:40:34.518Z,34.20
2019-02-23T14:43:12.183Z,35.00
2019-02-23T14:46:08.428Z,33.50
2019-02-23T14:48:43.088Z,33.60
2019-02-23T14:51:29.923Z,34.00
2019-02-23T14:54:04.560Z,34.10
2019-02-23T14:56:39.313Z,33.90
2019-02-23T14:59:27.714Z,34.00
2019-02-23T15:02:33.123Z,34.10
2019-02-23T15:05:16.871Z,34.40
2019-02-23T15:08:00.445Z,33.00
2019-02-23T15:10:41.147Z,33.60
2019-02-23T15:13:15.801Z,33.80
2019-02-23T15:16:02.907Z,33.40
2019-02-23T15:18:37.229Z,33.60
2019-02-23T15:21:42.336Z,33.10
2019-02-23T15:24:13.972Z,33.50
2019-02-23T15:27:08.221Z,33.00
2019-02-23T15:29:49.058Z,33.50
2019-02-23T15:32:29.808Z,34.10
2019-02-23T15:35:25.588Z,34.20
2019-02-23T15:38:25.833Z,33.30
2019-02-23T15:41:29.316Z,33.90
2019-02-23T15:44:25.596Z,34.10
2019-02-23T15:47:22.505Z,34.80
2019-02-23T15:49:51.028Z,34.90
2019-02-23T15:52:19.632Z,36.00
2019-02-23T15:54:48.148Z,36.20
2019-02-23T15:57:16.740Z,35.80
2019-02-23T15:59:45.378Z,36.60
2019-02-23T16:02:14.583Z,36.10
2019-02-23T16:04:43.581Z,36.50
2019-02-23T16:07:12.487Z,36.70
2019-02-23T16:09:41.036Z,36.60
2019-02-23T16:12:09.610Z,37.50
2019-02-23T16:14:38.178Z,37.50
2019-02-23T16:17:06.896Z,37.50
2019-02-23T16:19:35.478Z,37.20
2019-02-23T16:22:04.024Z,37.30
2019-02-23T16:24:32.600Z,37.30
2019-02-23T16:27:01.155Z,37.20
2019-02-23T16:29:29.769Z,36.40
2019-02-23T16:31:58.327Z,36.80
2019-02-23T16:34:26.878Z,37.30
2019-02-23T16:36:55.450Z,37.40
2019-02-23T16:39:24.003Z,37.30
2019-02-23T16:41:52.657Z,37.90
2019-02-23T16:44:21.204Z,37.90
2019-02-23T16:46:49.773Z,37.30
2019-02-23T16:49:18.337Z,37.20
2019-02-23T16:51:46.903Z,37.80
2019-02-23T16:54:15.513Z,38.60
2019-02-23T16:56:44.044Z,37.70
2019-02-23T16:59:12.664Z,37.90
2019-02-23T17:01:41.321Z,38.80
2019-02-23T17:04:09.901Z,39.20
2019-02-23T17:06:38.452Z,39.90
2019-02-23T17:09:07.565Z,39.80
2019-02-23T17:11:36.176Z,39.70
2019-02-23T17:14:04.720Z,39.90
2019-02-23T17:16:33.273Z,40.30
2019-02-23T17:19:01.869Z,40.40
2019-02-23T17:21:30.507Z,40.70
2019-02-23T17:23:59.110Z,39.50
2019-02-23T17:26:27.649Z,40.20
2019-02-23T17:28:56.317Z,40.50
2019-02-23T17:31:24.880Z,40.80
2019-02-23T17:33:53.413Z,41.30
2019-02-23T17:36:21.989Z,41.40
2019-02-23T17:38:50.560Z,41.40
2019-02-23T17:41:19.134Z,41.40
2019-02-23T17:43:47.689Z,41.20
2019-02-23T17:46:16.260Z,41.70
2019-02-23T17:48:44.813Z,41.90
2019-02-23T17:51:13.391Z,41.40
2019-02-23T17:53:41.988Z,41.50
2019-02-23T17:56:12.599Z,41.50
2019-02-23T17:58:40.804Z,41.60
2019-02-23T18:01:09.335Z,41.50
2019-02-23T18:03:37.920Z,41.50
2019-02-23T18:06:06.775Z,41.90
2019-02-23T18:08:35.337Z,41.80
2019-02-23T18:11:03.992Z,41.80
2019-02-23T18:13:32.656Z,42.40
2019-02-23T18:16:01.211Z,42.10
2019-02-23T18:18:29.860Z,42.50
2019-02-23T18:20:58.404Z,42.50
2019-02-23T18:23:26.968Z,42.40
2019-02-23T18:25:55.537Z,42.20
2019-02-23T18:28:24.083Z,42.10
2019-02-23T18:30:52.667Z,42.40
2019-02-23T18:33:21.383Z,42.90
2019-02-23T18:35:49.961Z,42.40
2019-02-23T18:38:18.516Z,42.70
2019-02-23T18:40:47.084Z,42.70
2019-02-23T18:43:15.989Z,42.60
2019-02-23T18:45:47.349Z,42.60
2019-02-23T18:48:14.776Z,42.20
2019-02-23T18:50:43.328Z,42.30
2019-02-23T18:53:11.983Z,42.20
2019-02-23T18:55:41.430Z,42.30
2019-02-23T18:58:10.235Z,42.30
2019-02-23T19:00:38.862Z,42.50
2019-02-23T19:03:07.428Z,42.70
2019-02-23T19:05:36.047Z,42.70
2019-02-23T19:08:04.616Z,42.80
2019-02-23T19:10:33.233Z,42.70
2019-02-23T19:13:01.768Z,42.60
2019-02-23T19:15:30.383Z,46.50
2019-02-23T19:17:58.960Z,46.70
2019-02-23T19:20:27.520Z,42.50
2019-02-23T19:22:56.272Z,42.50
2019-02-23T19:25:24.826Z,42.50
2019-02-23T19:27:53.521Z,42.30
2019-02-23T19:30:22.144Z,42.80
2019-02-23T19:32:50.711Z,43.30
2019-02-23T19:35:19.292Z,43.30
2019-02-23T19:37:47.842Z,43.20
2019-02-23T19:40:16.483Z,43.20
2019-02-23T19:42:45.037Z,43.30
2019-02-23T19:45:13.609Z,43.20
2019-02-23T19:47:42.614Z,43.00
2019-02-23T19:50:14.199Z,42.70
2019-02-23T19:52:42.821Z,42.00
2019-02-23T19:55:14.657Z,42.10
2019-02-23T19:57:43.552Z,41.50
2019-02-23T20:00:12.264Z,40.80
2019-02-23T20:02:40.909Z,40.70
2019-02-23T20:05:10.670Z,40.20
2019-02-23T20:07:39.240Z,39.80
2019-02-23T20:10:10.240Z,40.30
2019-02-23T20:12:38.807Z,39.50
2019-02-23T20:15:09.402Z,39.60
2019-02-23T20:17:38.000Z,39.30
2019-02-23T20:20:07.592Z,39.00
2019-02-23T20:22:36.163Z,39.40
2019-02-23T20:25:06.775Z,39.30
2019-02-23T20:27:35.328Z,39.70
2019-02-23T20:30:05.487Z,39.80
2019-02-23T20:32:34.405Z,39.50
2019-02-23T20:35:02.980Z,39.30
2019-02-23T20:37:31.529Z,39.10
2019-02-23T20:40:00.434Z,38.60
2019-02-23T20:42:29.100Z,38.90
2019-02-23T20:44:57.645Z,38.90
2019-02-23T20:47:26.221Z,39.30
2019-02-23T20:49:54.868Z,38.90
2019-02-23T20:52:23.440Z,38.20
2019-02-23T20:54:52.019Z,37.30
2019-02-23T20:57:20.599Z,37.80
2019-02-23T20:59:49.516Z,38.40
2019-02-23T21:02:18.096Z,38.50
2019-02-23T21:04:46.653Z,38.40
2019-02-23T21:07:15.528Z,37.90
2019-02-23T21:09:44.081Z,36.70
2019-02-23T21:12:12.632Z,36.80
2019-02-23T21:14:41.208Z,36.70
2019-02-23T21:17:09.812Z,36.40
2019-02-23T21:19:38.442Z,36.20
2019-02-23T21:22:07.066Z,36.00
2019-02-23T21:24:35.639Z,36.00
2019-02-23T21:27:12.656Z,37.00
2019-02-23T21:29:34.417Z,37.50
2019-02-23T21:32:03.040Z,37.00
2019-02-23T21:34:31.731Z,35.80
2019-02-23T21:37:00.628Z,35.30
2019-02-23T21:39:29.324Z,35.00
2019-02-23T21:41:57.957Z,35.20
2019-02-23T21:44:26.457Z,35.70
2019-02-23T21:46:55.032Z,36.20
2019-02-23T21:49:23.772Z,35.40
2019-02-23T21:51:52.434Z,35.30
2019-02-23T21:54:20.989Z,36.30
2019-02-23T21:56:49.545Z,36.40
2019-02-23T21:59:18.104Z,36.70
2019-02-23T22:01:46.676Z,36.30
2019-02-23T22:04:15.281Z,36.10
2019-02-23T22:06:43.808Z,36.40
2019-02-23T22:09:12.363Z,36.20
2019-02-23T22:11:40.909Z,36.10
2019-02-23T22:14:09.572Z,35.20
2019-02-23T22:16:39.104Z,34.90
2019-02-23T22:19:07.682Z,34.70
2019-02-23T22:21:36.239Z,34.90
2019-02-23T22:24:05.197Z,34.40
2019-02-23T22:26:33.827Z,34.30
2019-02-23T22:29:02.745Z,34.70
2019-02-23T22:31:31.295Z,34.60
2019-02-23T22:33:59.864Z,34.70
2019-02-23T22:36:28.424Z,34.80
2019-02-23T22:38:56.976Z,34.00
2019-02-23T22:41:25.657Z,33.90
2019-02-23T22:43:54.216Z,34.50
2019-02-23T22:46:22.792Z,32.70
2019-02-23T22:48:51.349Z,33.40
2019-02-23T22:51:19.925Z,33.00
2019-02-23T22:53:48.476Z,31.00
2019-02-23T22:56:17.067Z,31.70
2019-02-23T22:58:45.628Z,32.10
2019-02-23T23:01:14.579Z,32.50
2019-02-23T23:03:43.183Z,32.40
2019-02-23T23:06:11.723Z,32.30
2019-02-23T23:08:40.292Z,32.00
2019-02-23T23:11:08.842Z,31.80
2019-02-23T23:13:37.413Z,31.50
2019-02-23T23:16:05.970Z,31.10
2019-02-23T23:18:34.539Z,30.70
2019-02-23T23:21:03.089Z,30.70
2019-02-23T23:23:31.667Z,30.30
2019-02-23T23:26:00.561Z,30.00
2019-02-23T23:28:29.144Z,29.50
2019-02-23T23:30:57.701Z,29.60
2019-02-23T23:33:26.261Z,29.70
2019-02-23T23:35:55.156Z,28.70
2019-02-23T23:38:23.711Z,28.10
2019-02-23T23:40:52.355Z,27.70
2019-02-23T23:43:21.247Z,28.00
2019-02-23T23:45:49.821Z,27.60
2019-02-23T23:48:18.700Z,27.60
2019-02-23T23:50:47.276Z,27.80
2019-02-23T23:53:15.827Z,27.30
2019-02-23T23:55:44.392Z,27.80
2019-02-23T23:58:12.948Z,27.70
